createdAt,value
2018-10-06T00:05:42.035Z,4.39
2018-10-06T00:11:37.044Z,4.57
2018-10-06T00:17:32.075Z,4.82
2018-10-06T00:23:27.101Z,4.49
2018-10-06T00:29:22.080Z,7.42
2018-10-06T00:35:17.070Z,7.06
2018-10-06T00:41:12.070Z,4.27
2018-10-06T00:47:07.167Z,5.67
2018-10-06T00:53:02.100Z,4.67
2018-10-06T00:58:57.103Z,5.69
2018-10-06T01:04:52.169Z,5.97
2018-10-06T01:10:47.128Z,5.22
2018-10-06T01:16:42.115Z,5.01
2018-10-06T01:22:37.139Z,5.45
2018-10-06T01:28:32.131Z,6.07
2018-10-06T01:34:27.135Z,5.38
2018-10-06T01:40:22.148Z,5
2018-10-06T01:46:17.151Z,4.92
2018-10-06T01:52:12.134Z,5.58
2018-10-06T01:58:07.141Z,6.54
2018-10-06T02:04:02.142Z,6.59
2018-10-06T02:09:57.134Z,7.27
2018-10-06T02:15:52.146Z,6.78
2018-10-06T02:21:47.170Z,6.7
2018-10-06T02:27:42.160Z,6.54
2018-10-06T02:33:37.165Z,6.82
2018-10-06T02:39:32.219Z,7.43
2018-10-06T02:45:27.212Z,6.46
2018-10-06T02:51:22.232Z,7.12
2018-10-06T02:57:17.190Z,7.37
2018-10-06T03:03:12.282Z,6.45
2018-10-06T03:09:07.207Z,7.03
2018-10-06T03:15:02.188Z,8.77
2018-10-06T03:20:57.227Z,10.51
2018-10-06T03:26:52.215Z,6.4
2018-10-06T03:32:47.201Z,6.05
2018-10-06T03:38:42.273Z,8.63
2018-10-06T03:44:37.201Z,7.44
2018-10-06T03:50:32.242Z,11.21
2018-10-06T03:56:27.197Z,6.94
2018-10-06T04:02:22.228Z,9.01
2018-10-06T04:08:17.250Z,11.67
2018-10-06T04:14:12.299Z,8.7
2018-10-06T04:20:07.235Z,10.14
2018-10-06T04:26:02.232Z,9.67
2018-10-06T04:31:57.245Z,10.79
2018-10-06T04:37:52.280Z,10.91
2018-10-06T04:43:47.246Z,11.39
2018-10-06T04:49:42.243Z,15.41
2018-10-06T04:55:37.256Z,11.57
2018-10-06T05:01:32.273Z,11.09
2018-10-06T05:07:27.271Z,10.38
2018-10-06T05:13:22.299Z,12.01
2018-10-06T05:19:17.260Z,11.28
2018-10-06T05:25:12.278Z,12.53
2018-10-06T05:31:07.263Z,13.63
2018-10-06T05:37:02.296Z,13.19
2018-10-06T05:42:57.325Z,11.63
2018-10-06T05:48:52.384Z,11.73
2018-10-06T05:54:47.347Z,12.15
2018-10-06T06:00:42.299Z,12.72
2018-10-06T06:06:37.302Z,11.96
2018-10-06T06:12:32.320Z,8.99
2018-10-06T06:18:27.337Z,11.93
2018-10-06T06:24:22.326Z,10.75
2018-10-06T06:30:17.320Z,10.19
2018-10-06T06:36:12.418Z,9.74
2018-10-06T06:42:07.421Z,8.82
2018-10-06T06:48:02.355Z,12.84
2018-10-06T06:53:57.362Z,12.42
2018-10-06T06:59:52.345Z,8.3
2018-10-06T07:05:47.450Z,17.39
2018-10-06T07:11:42.359Z,14.28
2018-10-06T07:17:37.365Z,9.7
2018-10-06T07:23:32.376Z,9.26
2018-10-06T07:29:27.374Z,8.93
2018-10-06T07:35:22.405Z,10.41
2018-10-06T07:41:17.382Z,13.25
2018-10-06T07:47:12.408Z,11.37
2018-10-06T07:53:07.550Z,12.26
2018-10-06T07:59:02.463Z,13.09
2018-10-06T08:04:57.487Z,8.73
2018-10-06T08:10:52.515Z,8.1
2018-10-06T08:16:47.453Z,9.33
2018-10-06T08:22:46.460Z,9.17
2018-10-06T08:28:37.506Z,11.36
2018-10-06T08:34:36.570Z,11.77
2018-10-06T08:40:27.520Z,9.68
2018-10-06T08:46:22.501Z,10.31
2018-10-06T08:52:17.424Z,9.59
2018-10-06T08:58:12.463Z,10.94
2018-10-06T09:04:07.490Z,15.54
2018-10-06T09:10:02.444Z,14.92
2018-10-06T09:15:57.447Z,17.12
2018-10-06T09:21:52.477Z,16.56
2018-10-06T09:27:47.448Z,15.82
2018-10-06T09:33:42.438Z,12.16
2018-10-06T09:39:37.489Z,13.54
2018-10-06T09:45:32.462Z,15.3
2018-10-06T09:51:27.468Z,22.94
2018-10-06T09:57:22.475Z,18.93
2018-10-06T10:03:17.478Z,20.18
2018-10-06T10:09:12.598Z,18.03
2018-10-06T10:15:07.472Z,17.33
2018-10-06T10:21:02.492Z,8.05
2018-10-06T10:26:57.499Z,14.58
2018-10-06T10:32:52.507Z,12.77
2018-10-06T10:38:47.508Z,8.58
2018-10-06T10:44:42.531Z,9.95
2018-10-06T10:50:37.603Z,6.47
2018-10-06T10:56:32.528Z,8.01
2018-10-06T11:02:27.590Z,6.83
2018-10-06T11:08:22.542Z,6.94
2018-10-06T11:14:17.539Z,17.47
2018-10-06T11:20:12.538Z,15.58
2018-10-06T11:26:07.545Z,16.35
2018-10-06T11:32:02.564Z,16.48
2018-10-06T11:37:57.603Z,17.2
2018-10-06T11:43:52.563Z,19.04
2018-10-06T11:49:47.666Z,18.45
2018-10-06T11:55:42.651Z,16.47
2018-10-06T12:01:37.632Z,19.7
2018-10-06T12:07:32.608Z,17.63
2018-10-06T12:13:27.564Z,22.17
2018-10-06T12:19:22.589Z,20.57
2018-10-06T12:25:17.651Z,19.48
2018-10-06T12:31:12.798Z,21.27
2018-10-06T12:37:07.580Z,20.57
2018-10-06T12:43:02.605Z,21.6
2018-10-06T12:48:57.638Z,19.81
2018-10-06T12:54:52.593Z,23.09
2018-10-06T13:00:47.634Z,22.36
2018-10-06T13:06:42.671Z,20.22
2018-10-06T13:12:37.680Z,20.66
2018-10-06T13:18:32.638Z,24.24
2018-10-06T13:24:27.665Z,26.37
2018-10-06T13:30:26.734Z,24.45
2018-10-06T13:36:17.743Z,19.42
2018-10-06T13:42:12.682Z,28.45
2018-10-06T13:48:07.690Z,20.53
2018-10-06T13:54:02.698Z,56.71
2018-10-06T13:59:57.653Z,47.46
2018-10-06T14:05:52.669Z,36.67
2018-10-06T14:11:47.655Z,33.57
2018-10-06T14:17:42.718Z,27.25
2018-10-06T14:23:37.682Z,30.58
2018-10-06T14:29:32.701Z,29.8
2018-10-06T14:35:27.701Z,21
2018-10-06T14:41:22.725Z,9.44
2018-10-06T14:47:17.860Z,13.71
2018-10-06T14:53:12.733Z,6.05
2018-10-06T14:59:07.682Z,5.65
2018-10-06T15:05:02.682Z,3.26
2018-10-06T15:10:57.718Z,6.05
2018-10-06T15:16:52.735Z,12.84
2018-10-06T15:22:47.710Z,28.85
2018-10-06T15:28:42.716Z,26.26
2018-10-06T15:34:37.708Z,29.91
2018-10-06T15:40:32.761Z,20.25
2018-10-06T15:46:27.724Z,17.26
2018-10-06T15:52:22.773Z,31.29
2018-10-06T15:58:17.744Z,28.21
2018-10-06T16:04:12.727Z,31.5
2018-10-06T16:10:07.754Z,34.15
2018-10-06T16:16:02.782Z,36.19
2018-10-06T16:21:57.750Z,34.82
2018-10-06T16:27:52.763Z,28.77
2018-10-06T16:33:47.777Z,26.43
2018-10-06T16:39:42.850Z,29.32
2018-10-06T16:45:37.772Z,39.62
2018-10-06T16:51:32.779Z,31.79
2018-10-06T16:57:27.823Z,31.91
2018-10-06T17:03:22.793Z,26.15
2018-10-06T17:09:17.780Z,21.72
2018-10-06T17:15:12.802Z,18.4
2018-10-06T17:21:07.802Z,24.48
2018-10-06T17:27:02.796Z,22.84
2018-10-06T17:32:57.797Z,22.12
2018-10-06T17:38:52.916Z,20.71
2018-10-06T17:44:47.801Z,19.73
2018-10-06T17:50:43.013Z,24.12
2018-10-06T17:56:37.889Z,20.49
2018-10-06T18:02:32.801Z,50.97
2018-10-06T18:08:27.848Z,40.49
2018-10-06T18:14:22.847Z,36.93
2018-10-06T18:20:18.038Z,41.96
2018-10-06T18:26:12.899Z,52.45
2018-10-06T18:32:07.854Z,52.7
2018-10-06T18:38:02.843Z,59.64
2018-10-06T18:43:57.873Z,58.27
2018-10-06T18:49:52.929Z,65.49
2018-10-06T18:55:47.854Z,61.52
2018-10-06T19:01:42.855Z,69.62
2018-10-06T19:07:37.886Z,77.94
2018-10-06T19:13:32.864Z,75.66
2018-10-06T19:19:27.878Z,78.24
2018-10-06T19:25:22.942Z,89.64
2018-10-06T19:31:17.919Z,92.85
2018-10-06T19:37:12.919Z,86.66
2018-10-06T19:43:07.892Z,81.63
2018-10-06T19:49:02.881Z,91.62
2018-10-06T19:54:57.915Z,89.98
2018-10-06T20:00:52.946Z,82.81
2018-10-06T20:06:47.914Z,80.58
2018-10-06T20:12:42.935Z,80.81
2018-10-06T20:18:37.935Z,86.98
2018-10-06T20:24:32.905Z,81.02
2018-10-06T20:30:27.934Z,83.56
2018-10-06T20:36:22.910Z,88.27
2018-10-06T20:42:17.934Z,82.65
2018-10-06T20:48:12.924Z,90.36
2018-10-06T20:54:07.962Z,85.9
2018-10-06T21:00:02.935Z,91.46
2018-10-06T21:05:58.001Z,92.53
2018-10-06T21:11:52.957Z,92.61
2018-10-06T21:17:47.964Z,85.52
2018-10-06T21:23:42.982Z,79.47
2018-10-06T21:29:38.362Z,73.17
2018-10-06T21:35:32.975Z,60.94
2018-10-06T21:41:28.013Z,62.68
2018-10-06T21:47:23.021Z,49.09
2018-10-06T21:53:17.964Z,50.57
2018-10-06T21:59:13.022Z,54.83
2018-10-06T22:05:08.130Z,51.56
2018-10-06T22:11:03.016Z,49.79
2018-10-06T22:16:58.001Z,45.77
2018-10-06T22:22:53.009Z,31.29
2018-10-06T22:28:48.030Z,31.07
2018-10-06T22:34:43.014Z,28.39
2018-10-06T22:40:38.043Z,28.63
2018-10-06T22:46:33.037Z,23.37
2018-10-06T22:52:28.029Z,18.92
2018-10-06T22:58:23.017Z,17.08
2018-10-06T23:04:18.023Z,12.7
2018-10-06T23:10:13.031Z,8.78
2018-10-06T23:16:08.024Z,8.59
2018-10-06T23:22:03.069Z,11.51
2018-10-06T23:27:58.029Z,9.45
2018-10-06T23:33:53.038Z,17.16
2018-10-06T23:39:48.109Z,15.02
2018-10-06T23:45:43.059Z,11.09
2018-10-06T23:51:38.063Z,9.11
2018-10-06T23:57:33.087Z,14.97
